Time;durP1;ratioP1;P1;durP2;ratioP2;P2;SDS_P1;SDS_P2;PMS_P1;PMS_P2;Temp;Humidity;BMP_temperature;BMP_pressure;BME280_temperature;BME280_humidity;BME280_pressure;Samples;Min_cycle;Max_cycle;Signal;HPM_P1;HPM_P2
2021/10/14 00:01:01;;;;;;;24.98;8.75;;;;;;;11.22;78.34;102345.81;5051573;28;20041;-66
2021/10/14 00:03:28;;;;;;;22.15;8.63;;;;;;;11.22;77.88;102346.66;5049669;28;20722;-66
2021/10/14 00:05:55;;;;;;;22.08;8.50;;;;;;;11.17;78.42;102337.34;5051462;28;20551;-66
2021/10/14 00:08:22;;;;;;;21.60;8.88;;;;;;;11.03;78.76;102341.94;5052184;28;20107;-66
2021/10/14 00:10:49;;;;;;;18.48;8.77;;;;;;;10.99;78.89;102340.50;5051971;28;20552;-66
2021/10/14 00:13:15;;;;;;;22.10;8.85;;;;;;;11.04;78.39;102343.63;5034008;28;20033;-66
2021/10/14 00:15:42;;;;;;;21.58;8.68;;;;;;;11.02;78.48;102342.88;5017374;28;20084;-66
2021/10/14 00:18:09;;;;;;;23.17;8.88;;;;;;;11.04;78.66;102342.78;5051294;28;20100;-65
2021/10/14 00:20:36;;;;;;;22.23;8.85;;;;;;;11.08;77.84;102342.44;5033685;28;20048;-66
2021/10/14 00:23:03;;;;;;;23.25;8.82;;;;;;;11.07;78.42;102334.56;5051211;28;20048;-66
2021/10/14 00:25:31;;;;;;;19.65;8.30;;;;;;;11.03;78.19;102335.78;5034278;28;20045;-66
2021/10/14 00:27:58;;;;;;;23.20;8.75;;;;;;;11.05;78.63;102339.16;5051499;28;20103;-66
2021/10/14 00:30:25;;;;;;;23.23;8.07;;;;;;;10.96;79.64;102346.03;5051596;28;20091;-66
2021/10/14 00:32:52;;;;;;;23.80;8.48;;;;;;;11.07;78.28;102345.19;5051498;28;20041;-66
2021/10/14 00:35:18;;;;;;;23.20;8.40;;;;;;;11.13;78.03;102345.59;5049522;28;20037;-66
2021/10/14 00:37:45;;;;;;;24.50;8.98;;;;;;;11.12;78.20;102349.19;5033812;28;20588;-64
2021/10/14 00:40:15;;;;;;;30.42;8.60;;;;;;;11.16;77.51;102341.84;5051499;28;20045;-64
2021/10/14 00:42:45;;;;;;;23.63;8.50;;;;;;;11.08;77.47;102333.63;5051316;28;20045;-64
2021/10/14 00:45:13;;;;;;;18.75;8.30;;;;;;;11.05;77.62;102334.69;5051418;28;20523;-64
2021/10/14 00:47:39;;;;;;;27.50;8.30;;;;;;;11.07;77.27;102334.56;5051600;28;20045;-64
2021/10/14 00:50:08;;;;;;;22.67;8.38;;;;;;;11.06;77.69;102331.09;5037503;28;20045;-64
2021/10/14 00:52:39;;;;;;;17.23;7.70;;;;;;;11.10;78.27;102331.69;5055132;28;20367;-64
2021/10/14 00:55:08;;;;;;;25.30;8.60;;;;;;;11.16;77.92;102328.56;5054982;28;20115;-64
2021/10/14 00:57:35;;;;;;;22.92;7.68;;;;;;;11.22;77.10;102327.22;5055144;28;20548;-64
2021/10/14 01:00:03;;;;;;;19.48;7.63;;;;;;;11.20;77.50;102323.84;5055243;28;20409;-65
2021/10/14 01:02:30;;;;;;;20.75;8.10;;;;;;;11.06;78.25;102332.88;5068727;28;20464;-64
2021/10/14 01:04:57;;;;;;;28.55;7.70;;;;;;;11.22;76.54;102328.06;5073255;28;20043;-64
2021/10/14 01:07:24;;;;;;;18.77;7.85;;;;;;;11.16;77.68;102320.59;5074995;28;20127;-66
2021/10/14 01:09:50;;;;;;;19.67;7.72;;;;;;;11.09;77.82;102322.03;5073850;28;20434;-64
2021/10/14 01:12:18;;;;;;;21.10;7.85;;;;;;;11.18;77.62;102309.84;5077128;28;20037;-64
2021/10/14 01:14:45;;;;;;;27.38;9.40;;;;;;;11.19;77.09;102301.75;5074318;28;20531;-64
2021/10/14 01:17:12;;;;;;;24.77;8.23;;;;;;;11.23;76.82;102295.22;5073631;28;20044;-64
2021/10/14 01:19:40;;;;;;;21.42;7.78;;;;;;;11.18;77.61;102291.25;5074611;28;20045;-66
2021/10/14 01:22:07;;;;;;;17.75;7.57;;;;;;;11.18;76.96;102293.91;5074439;28;20127;-66
2021/10/14 01:24:33;;;;;;;16.77;7.40;;;;;;;11.28;76.52;102294.88;5054621;28;20087;-66
2021/10/14 01:27:05;;;;;;;18.85;7.05;;;;;;;11.14;76.80;102293.31;5055848;28;20065;-66
2021/10/14 01:29:33;;;;;;;;;;;;;;;11.11;77.23;102290.88;5074751;28;20052;-64
2021/10/14 01:32:01;;;;;;;22.42;7.53;;;;;;;11.09;77.29;102296.31;5056814;28;19920;-64
2021/10/14 01:34:27;;;;;;;19.35;7.13;;;;;;;11.09;77.07;102292.81;5074675;28;20044;-64
2021/10/14 01:36:54;;;;;;;23.67;7.65;;;;;;;11.19;76.01;102290.28;5073027;28;20067;-66
2021/10/14 01:39:21;;;;;;;20.55;7.28;;;;;;;11.13;77.17;102299.56;5040724;28;20462;-64
2021/10/14 01:41:49;;;;;;;16.98;7.03;;;;;;;11.07;76.77;102298.22;5073906;28;20041;-64
2021/10/14 01:44:16;;;;;;;25.27;7.50;;;;;;;11.07;77.12;102300.88;5064989;28;20037;-66
2021/10/14 01:46:43;;;;;;;20.25;6.90;;;;;;;11.04;76.88;102293.19;5052252;28;20056;-66
2021/10/14 01:49:09;;;;;;;16.48;7.43;;;;;;;11.01;77.31;102301.38;5073210;28;20047;-66
2021/10/14 01:51:36;;;;;;;21.45;7.43;;;;;;;11.10;76.97;102297.16;5036485;28;20083;-66
2021/10/14 01:54:03;;;;;;;25.60;8.30;;;;;;;11.00;77.29;102298.84;5070786;28;20516;-66
2021/10/14 01:56:29;;;;;;;18.60;7.90;;;;;;;11.11;77.02;102291.75;5054158;28;20107;-66
2021/10/14 01:58:56;;;;;;;25.85;8.63;;;;;;;10.96;79.25;102287.59;5074119;28;20047;-66
2021/10/14 02:01:23;;;;;;;18.25;7.55;;;;;;;11.01;78.12;102285.44;5073794;28;20045;-66
2021/10/14 02:03:50;;;;;;;19.50;8.10;;;;;;;11.06;76.64;102283.28;5070608;28;20051;-66
2021/10/14 02:06:16;;;;;;;19.77;7.90;;;;;;;11.10;77.36;102287.38;5073940;28;20037;-66
2021/10/14 02:08:44;;;;;;;23.08;7.93;;;;;;;11.21;75.51;102285.72;5073632;28;20118;-66
2021/10/14 02:11:11;;;;;;;19.52;7.50;;;;;;;11.02;76.09;102284.47;5055755;28;20044;-66
2021/10/14 02:13:37;;;;;;;27.38;8.02;;;;;;;10.87;77.46;102283.84;5056175;28;20040;-66
2021/10/14 02:16:04;;;;;;;24.25;7.55;;;;;;;10.90;77.45;102285.44;5056045;28;20048;-66
2021/10/14 02:18:31;;;;;;;21.70;7.32;;;;;;;10.96;76.04;102284.94;5073793;28;20509;-66
2021/10/14 02:20:58;;;;;;;22.10;7.95;;;;;;;10.90;76.98;102282.78;5073705;28;20090;-66
2021/10/14 02:23:25;;;;;;;17.77;7.90;;;;;;;10.88;77.10;102288.22;5073027;28;20042;-66
2021/10/14 02:25:51;;;;;;;18.50;7.38;;;;;;;10.91;76.74;102289.78;5072438;28;20056;-66
2021/10/14 02:28:18;;;;;;;18.80;7.32;;;;;;;10.85;77.54;102280.47;5072654;28;20076;-66
2021/10/14 02:30:45;;;;;;;25.67;8.05;;;;;;;10.97;76.87;102281.34;5073908;28;20037;-66
2021/10/14 02:33:13;;;;;;;19.33;8.10;;;;;;;10.92;77.90;102283.50;5072261;28;20052;-66
2021/10/14 02:35:40;;;;;;;21.88;8.18;;;;;;;10.77;78.49;102288.19;5073824;28;20040;-66
2021/10/14 02:38:07;;;;;;;19.85;8.60;;;;;;;10.60;80.22;102285.97;5073120;28;20448;-66
2021/10/14 02:40:34;;;;;;;23.40;8.52;;;;;;;10.59;80.61;102278.97;5073476;28;20051;-66
2021/10/14 02:43:02;;;;;;;24.75;8.98;;;;;;;10.44;81.14;102286.28;5055656;28;20040;-66
2021/10/14 02:45:29;;;;;;;21.20;9.00;;;;;;;10.47;81.50;102281.59;5073702;28;20040;-64
2021/10/14 02:47:55;;;;;;;18.70;8.55;;;;;;;10.42;82.12;102281.06;5073219;28;20448;-64
2021/10/14 02:50:22;;;;;;;19.75;9.35;;;;;;;10.44;82.01;102276.53;5072307;28;20036;-64
2021/10/14 02:52:49;;;;;;;26.05;9.65;;;;;;;10.45;82.56;102280.84;5072836;28;20432;-64
2021/10/14 02:55:15;;;;;;;25.55;9.57;;;;;;;10.48;82.82;102269.19;5073204;28;20094;-66
2021/10/14 02:57:42;;;;;;;28.10;9.57;;;;;;;10.48;82.53;102272.69;5073133;28;20409;-64
2021/10/14 03:00:09;;;;;;;23.42;10.13;;;;;;;10.55;81.76;102267.72;5066694;28;20436;-66
2021/10/14 03:02:37;;;;;;;21.98;9.95;;;;;;;10.50;81.43;102267.25;5069483;28;20509;-66
2021/10/14 03:05:04;;;;;;;22.92;9.85;;;;;;;10.42;82.17;102266.97;5070801;28;20557;-66
2021/10/14 03:07:31;;;;;;;26.77;9.00;;;;;;;10.33;82.23;102271.16;5054814;28;20525;-66
2021/10/14 03:09:58;;;;;;;22.63;9.40;;;;;;;10.16;83.52;102265.28;5071190;28;20070;-66
2021/10/14 03:12:25;;;;;;;25.13;10.07;;;;;;;10.17;83.62;102271.44;5071441;28;20045;-66
2021/10/14 03:14:52;;;;;;;27.10;10.02;;;;;;;10.24;83.20;102271.81;5071637;28;20052;-66
2021/10/14 03:17:18;;;;;;;26.27;10.00;;;;;;;10.16;83.28;102267.94;5071182;28;20095;-64
2021/10/14 03:19:45;;;;;;;27.65;10.95;;;;;;;10.26;82.54;102273.41;5070839;28;20044;-66
2021/10/14 03:22:12;;;;;;;28.08;11.43;;;;;;;10.32;82.94;102277.44;5071175;28;20401;-66
2021/10/14 03:24:39;;;;;;;24.10;10.40;;;;;;;10.31;82.82;102268.63;5070832;28;20543;-66
2021/10/14 03:27:06;;;;;;;24.15;10.98;;;;;;;10.34;83.31;102270.22;5069889;28;20047;-66
2021/10/14 03:29:32;;;;;;;27.92;9.88;;;;;;;10.34;82.12;102273.69;5071685;28;20497;-66
2021/10/14 03:31:59;;;;;;;23.27;9.65;;;;;;;10.42;81.82;102280.25;5070141;28;20041;-66
2021/10/14 03:34:25;;;;;;;23.50;10.40;;;;;;;10.32;82.07;102277.44;5071693;28;20044;-66
2021/10/14 03:36:52;;;;;;;29.10;10.93;;;;;;;10.20;82.50;102284.47;5054279;28;20154;-66
2021/10/14 03:39:19;;;;;;;22.50;11.35;;;;;;;10.16;82.53;102278.53;5072244;28;20036;-66
2021/10/14 03:41:45;;;;;;;25.30;11.15;;;;;;;10.05;82.65;102288.25;5072186;28;20052;-66
2021/10/14 03:44:13;;;;;;;24.02;11.23;;;;;;;10.06;82.67;102285.50;5057134;28;20033;-66
2021/10/14 03:46:41;;;;;;;25.77;11.77;;;;;;;10.06;83.05;102289.94;5072680;28;20036;-66
2021/10/14 03:49:07;;;;;;;26.95;11.30;;;;;;;10.20;83.24;102276.50;5071208;28;20432;-66
2021/10/14 03:51:34;;;;;;;23.65;11.38;;;;;;;10.20;82.99;102276.50;5071747;28;20047;-66
2021/10/14 03:54:01;;;;;;;30.00;11.68;;;;;;;10.20;82.21;102271.19;5071853;28;20543;-64
2021/10/14 03:56:28;;;;;;;22.27;11.45;;;;;;;10.12;83.27;102273.59;5070297;28;20075;-66
2021/10/14 03:58:54;;;;;;;25.38;11.40;;;;;;;10.19;82.07;102275.66;5072247;28;20488;-66
2021/10/14 04:01:21;;;;;;;28.35;10.93;;;;;;;10.09;82.10;102274.66;5063569;28;20049;-66
2021/10/14 04:03:48;;;;;;;35.17;11.93;;;;;;;10.16;81.96;102275.88;5049868;28;20052;-66
2021/10/14 04:06:14;;;;;;;29.73;11.57;;;;;;;10.15;82.41;102276.00;5051585;28;20075;-66
2021/10/14 04:08:41;;;;;;;23.25;10.75;;;;;;;10.15;82.58;102282.16;5051831;28;20041;-66
2021/10/14 04:11:08;;;;;;;25.10;11.20;;;;;;;10.20;82.24;102279.16;5034172;28;20445;-66
2021/10/14 04:13:35;;;;;;;23.35;11.15;;;;;;;10.29;81.67;102272.31;5052240;28;20033;-66
2021/10/14 04:16:02;;;;;;;23.75;11.43;;;;;;;10.38;82.15;102277.81;5051244;28;20052;-64
2021/10/14 04:18:28;;;;;;;27.60;10.95;;;;;;;10.46;81.56;102268.44;5051523;28;20045;-64
2021/10/14 04:20:55;;;;;;;24.88;11.35;;;;;;;10.29;82.05;102264.38;5051980;28;20485;-64
2021/10/14 04:23:23;;;;;;;25.13;10.90;;;;;;;10.54;80.34;102263.41;5035502;28;20450;-64
2021/10/14 04:25:50;;;;;;;23.73;10.70;;;;;;;10.37;80.54;102264.69;5037812;28;20068;-66
2021/10/14 04:28:17;;;;;;;24.60;10.63;;;;;;;10.29;80.88;102259.91;5055729;28;20497;-64
2021/10/14 04:30:46;;;;;;;28.75;10.48;;;;;;;10.21;81.87;102264.94;5053913;28;20041;-64
2021/10/14 04:33:13;;;;;;;30.27;10.68;;;;;;;10.27;81.56;102261.00;5055936;28;20490;-64
2021/10/14 04:35:40;;;;;;;22.20;10.80;;;;;;;10.31;81.48;102267.78;5038116;28;20099;-66
2021/10/14 04:38:06;;;;;;;25.88;10.70;;;;;;;10.46;80.78;102263.13;5038245;28;20041;-64
2021/10/14 04:40:33;;;;;;;21.35;10.30;;;;;;;10.43;80.49;102260.72;5038217;28;20128;-64
2021/10/14 04:43:00;;;;;;;24.92;10.82;;;;;;;10.49;81.23;102257.59;5055625;28;20051;-66
2021/10/14 04:45:27;;;;;;;25.58;10.70;;;;;;;10.53;79.55;102264.34;5038131;28;20464;-66
2021/10/14 04:47:53;;;;;;;26.35;10.63;;;;;;;10.44;80.65;102265.91;5055493;28;20465;-66
2021/10/14 04:50:20;;;;;;;23.77;9.75;;;;;;;10.50;79.59;102257.47;5055655;28;20045;-66
2021/10/14 04:52:47;;;;;;;30.65;10.52;;;;;;;10.57;80.09;102263.19;5051704;28;20070;-64
2021/10/14 04:55:13;;;;;;;27.95;10.10;;;;;;;10.60;78.54;102257.63;5046838;28;20049;-66
2021/10/14 04:57:40;;;;;;;25.13;9.98;;;;;;;10.50;79.85;102259.28;5034375;28;20498;-66
2021/10/14 05:00:08;;;;;;;27.80;9.93;;;;;;;10.56;79.47;102257.00;5037211;28;20076;-66
2021/10/14 05:02:36;;;;;;;24.00;9.95;;;;;;;10.62;78.21;102257.50;5073151;28;20049;-66
2021/10/14 05:05:03;;;;;;;23.77;10.63;;;;;;;10.46;79.12;102265.78;5072705;28;20127;-66
2021/10/14 05:07:29;;;;;;;26.30;10.05;;;;;;;10.33;79.89;102256.13;5074813;28;20041;-66
2021/10/14 05:09:56;;;;;;;24.17;10.55;;;;;;;10.33;80.16;102261.41;5074938;28;20083;-64
2021/10/14 05:12:23;;;;;;;22.02;10.73;;;;;;;10.29;80.34;102257.25;5060836;28;20060;-66
2021/10/14 05:14:50;;;;;;;27.23;10.38;;;;;;;10.25;80.93;102254.97;5057122;28;20524;-66
2021/10/14 05:17:17;;;;;;;32.75;11.63;;;;;;;10.29;80.08;102256.41;5074517;28;20554;-66
2021/10/14 05:19:44;;;;;;;36.85;11.55;;;;;;;10.41;79.89;102252.03;5074578;28;20036;-66
2021/10/14 05:22:10;;;;;;;30.73;12.02;;;;;;;10.41;79.45;102252.03;5074568;28;20179;-64
2021/10/14 05:24:37;;;;;;;31.55;12.10;;;;;;;10.41;79.14;102244.91;5074515;28;20032;-66
2021/10/14 05:27:04;;;;;;;34.65;12.25;;;;;;;10.38;80.07;102245.97;5071403;28;20079;-66
2021/10/14 05:29:31;;;;;;;24.27;12.38;;;;;;;10.45;80.00;102249.03;5074575;28;20040;-66
2021/10/14 05:31:58;;;;;;;27.63;13.63;;;;;;;10.32;80.06;102242.97;5074816;28;20493;-65
2021/10/14 05:34:24;;;;;;;34.60;14.15;;;;;;;10.49;80.26;102245.16;5072439;28;20497;-66
2021/10/14 05:36:51;;;;;;;34.05;13.38;;;;;;;10.40;81.15;102243.22;5074640;28;20440;-66
2021/10/14 05:39:19;;;;;;;34.75;14.13;;;;;;;10.48;79.66;102247.97;5074537;28;20048;-66
2021/10/14 05:41:45;;;;;;;34.85;15.05;;;;;;;10.55;79.30;102246.50;5074559;28;20045;-66
2021/10/14 05:44:12;;;;;;;27.83;12.93;;;;;;;10.54;79.18;102243.00;5056603;28;20040;-66
2021/10/14 05:46:39;;;;;;;36.13;15.85;;;;;;;10.46;79.74;102242.75;5074571;28;20048;-66
2021/10/14 05:49:06;;;;;;;35.50;15.40;;;;;;;10.42;80.53;102243.09;5056620;28;20131;-66
2021/10/14 05:51:32;;;;;;;38.83;16.10;;;;;;;10.44;79.95;102246.47;5056703;28;20044;-65
2021/10/14 05:54:01;;;;;;;42.35;16.50;;;;;;;10.34;81.68;102249.81;5056016;28;20056;-65
2021/10/14 05:56:27;;;;;;;35.58;16.45;;;;;;;10.35;82.57;102245.34;5056529;28;20044;-65
2021/10/14 05:58:54;;;;;;;41.40;17.75;;;;;;;10.36;82.69;102260.31;5070066;28;20045;-66
2021/10/14 06:01:21;;;;;;;40.08;19.95;;;;;;;10.29;83.02;102259.91;5065752;28;20049;-66
2021/10/14 06:03:47;;;;;;;43.80;18.70;;;;;;;10.45;82.63;102261.44;5067212;28;20036;-66
2021/10/14 06:06:14;;;;;;;39.22;18.95;;;;;;;10.24;83.26;102254.13;5073840;28;20126;-65
2021/10/14 06:08:41;;;;;;;44.05;19.92;;;;;;;10.32;83.54;102256.22;5073424;28;20048;-66
2021/10/14 06:11:08;;;;;;;40.67;19.83;;;;;;;10.24;84.26;102258.56;5073749;28;20037;-66
2021/10/14 06:13:36;;;;;;;44.13;19.92;;;;;;;10.35;84.13;102251.53;5073539;28;20043;-66
2021/10/14 06:16:04;;;;;;;42.17;21.25;;;;;;;10.40;84.45;102255.63;5073759;28;20055;-66
2021/10/14 06:18:31;;;;;;;49.33;22.73;;;;;;;10.37;83.36;102262.03;5073335;28;20041;-66
2021/10/14 06:20:57;;;;;;;57.35;22.65;;;;;;;10.25;84.60;102265.56;5073121;28;20512;-66
2021/10/14 06:23:24;;;;;;;44.88;22.15;;;;;;;10.33;84.68;102258.75;5073385;28;20067;-65
2021/10/14 06:25:51;;;;;;;48.15;23.17;;;;;;;10.25;84.97;102253.16;5055439;28;20051;-66
2021/10/14 06:28:18;;;;;;;44.47;23.10;;;;;;;10.12;85.29;102249.72;5073402;28;20111;-65
2021/10/14 06:30:45;;;;;;;52.38;24.52;;;;;;;10.03;86.03;102255.72;5071789;28;20493;-65
2021/10/14 06:33:11;;;;;;;56.05;24.65;;;;;;;10.07;86.27;102252.72;5039162;28;20045;-66
2021/10/14 06:35:38;;;;;;;48.67;24.15;;;;;;;9.98;86.49;102248.94;5038577;28;20059;-65
2021/10/14 06:38:06;;;;;;;63.60;25.95;;;;;;;9.92;87.02;102248.56;5073138;28;20051;-65
2021/10/14 06:40:33;;;;;;;53.80;25.38;;;;;;;9.84;87.90;102245.59;5073693;28;20051;-66
2021/10/14 06:43:00;;;;;;;55.03;25.65;;;;;;;9.90;87.88;102247.81;5067472;28;20040;-65
2021/10/14 06:45:27;;;;;;;54.90;26.48;;;;;;;9.88;87.84;102244.44;5048080;28;20044;-66
2021/10/14 06:47:54;;;;;;;56.08;26.50;;;;;;;9.81;88.46;102241.38;5056313;28;20115;-66
2021/10/14 06:50:21;;;;;;;57.08;26.60;;;;;;;9.97;89.10;102241.13;5072553;28;20036;-66
2021/10/14 06:52:47;;;;;;;57.45;25.88;;;;;;;10.14;87.18;102234.53;5055047;28;20497;-66
2021/10/14 06:55:14;;;;;;;58.30;26.88;;;;;;;10.10;87.41;102238.41;5055080;28;20053;-66
2021/10/14 06:57:41;;;;;;;54.00;25.88;;;;;;;10.09;87.48;102234.03;5072632;28;20041;-66
2021/10/14 07:00:09;;;;;;;60.70;26.67;;;;;;;10.15;86.67;102237.09;5038892;28;20040;-66
2021/10/14 07:02:36;;;;;;;50.70;25.15;;;;;;;10.08;86.52;102237.66;5039902;28;20052;-66
2021/10/14 07:05:03;;;;;;;56.20;24.40;;;;;;;10.04;87.27;102230.88;5050423;28;20056;-66
2021/10/14 07:07:31;;;;;;;52.22;24.55;;;;;;;10.12;86.75;102231.16;5018500;28;20037;-64
2021/10/14 07:09:57;;;;;;;61.60;25.77;;;;;;;9.98;87.30;102233.00;5052334;28;20405;-64
2021/10/14 07:12:28;;;;;;;57.28;24.40;;;;;;;9.99;87.66;102239.19;5051338;28;20056;-64
2021/10/14 07:14:56;;;;;;;63.67;24.30;;;;;;;10.07;87.62;102242.09;5018396;28;20425;-64
2021/10/14 07:17:23;;;;;;;57.63;25.27;;;;;;;10.09;87.78;102240.19;5034431;28;20444;-64
2021/10/14 07:19:50;;;;;;;47.67;24.67;;;;;;;10.15;86.83;102244.16;5052182;28;20059;-64
2021/10/14 07:22:16;;;;;;;55.08;24.00;;;;;;;10.12;87.12;102234.66;5052062;28;20052;-64
2021/10/14 07:24:43;;;;;;;55.72;23.63;;;;;;;10.13;86.89;102241.66;5052186;28;20067;-66
2021/10/14 07:27:10;;;;;;;53.92;24.73;;;;;;;10.14;87.64;102238.03;5032805;28;20047;-66
2021/10/14 07:29:37;;;;;;;51.75;24.80;;;;;;;10.28;86.77;102233.53;5051232;28;20103;-66
2021/10/14 07:32:06;;;;;;;50.47;23.88;;;;;;;10.28;86.28;102228.22;5032538;28;20045;-64
2021/10/14 07:34:34;;;;;;;48.92;22.52;;;;;;;10.38;87.13;102231.88;5052102;28;20048;-66
2021/10/14 07:37:02;;;;;;;47.25;22.67;;;;;;;10.40;85.24;102242.38;5034820;28;20382;-66
2021/10/14 07:39:29;;;;;;;50.67;22.60;;;;;;;10.40;85.66;102232.59;5034731;28;20063;-64
2021/10/14 07:41:56;;;;;;;43.70;22.48;;;;;;;10.35;86.10;102238.28;5052437;28;20552;-65
2021/10/14 07:44:23;;;;;;;47.67;22.50;;;;;;;10.36;86.26;102239.94;5017111;28;20060;-66
2021/10/14 07:46:50;;;;;;;45.03;21.50;;;;;;;10.37;86.16;102243.47;5048471;28;20041;-65
2021/10/14 07:49:19;;;;;;;53.20;21.95;;;;;;;10.25;85.93;102245.19;5051556;28;20076;-65
2021/10/14 07:51:46;;;;;;;42.65;20.13;;;;;;;10.26;85.63;102243.38;5018200;28;20041;-65
2021/10/14 07:54:13;;;;;;;46.08;21.98;;;;;;;10.21;86.73;102258.81;5052085;28;20044;-65
2021/10/14 07:56:39;;;;;;;49.45;22.08;;;;;;;10.23;86.63;102254.22;5034301;28;20072;-65
2021/10/14 07:59:06;;;;;;;42.42;21.42;;;;;;;10.14;86.54;102250.47;5051755;28;20436;-65
2021/10/14 08:01:33;;;;;;;45.50;19.35;;;;;;;10.23;86.55;102251.59;5027612;28;20107;-66
2021/10/14 08:04:00;;;;;;;41.80;20.90;;;;;;;10.21;87.25;102258.81;5067081;28;20128;-65
2021/10/14 08:06:26;;;;;;;47.47;21.77;;;;;;;10.37;86.35;102252.25;5053271;28;20059;-66
2021/10/14 08:08:53;;;;;;;50.25;21.77;;;;;;;10.22;87.58;102261.31;5072436;28;20493;-65
2021/10/14 08:11:20;;;;;;;45.67;21.55;;;;;;;10.36;86.86;102262.97;5071072;28;20041;-66
2021/10/14 08:13:47;;;;;;;48.60;21.77;;;;;;;10.41;87.22;102257.34;5052078;28;20049;-65
2021/10/14 08:16:14;;;;;;;42.90;21.27;;;;;;;10.36;87.00;102262.97;5070228;28;20098;-65
2021/10/14 08:18:41;;;;;;;42.67;22.25;;;;;;;10.31;87.09;102254.53;5068586;28;20470;-65
2021/10/14 08:21:07;;;;;;;48.92;22.38;;;;;;;10.27;87.37;102258.34;5070251;28;20488;-65
2021/10/14 08:23:34;;;;;;;47.25;21.45;;;;;;;10.47;86.05;102255.06;5070273;28;20060;-65
2021/10/14 08:26:01;;;;;;;46.42;22.38;;;;;;;10.46;86.96;102257.81;5068672;28;20496;-65
2021/10/14 08:28:28;;;;;;;44.83;21.75;;;;;;;10.39;86.75;102252.16;5062350;28;20060;-65
2021/10/14 08:30:56;;;;;;;42.70;21.10;;;;;;;10.43;86.95;102258.91;5058443;28;20110;-65
2021/10/14 08:33:22;;;;;;;49.10;22.65;;;;;;;10.44;86.97;102262.41;5050645;28;20044;-65
2021/10/14 08:35:49;;;;;;;46.80;21.85;;;;;;;10.43;86.68;102261.56;5071230;28;20037;-65
2021/10/14 08:38:16;;;;;;;49.45;20.90;;;;;;;10.46;86.66;102255.16;5069977;28;20094;-65
2021/10/14 08:40:43;;;;;;;49.45;22.17;;;;;;;10.38;87.02;102247.78;5056839;28;20036;-65
2021/10/14 08:43:14;;;;;;;51.53;21.30;;;;;;;10.42;86.64;102246.59;5068849;28;20409;-65
2021/10/14 08:45:43;;;;;;;52.35;22.50;;;;;;;10.41;86.79;102252.88;5036648;28;20502;-65
2021/10/14 08:48:10;;;;;;;48.22;20.92;;;;;;;10.44;86.21;102250.00;5069474;28;20047;-65
2021/10/14 08:50:41;;;;;;;43.20;20.35;;;;;;;10.43;86.68;102250.09;5066739;28;20497;-65
2021/10/14 08:53:08;;;;;;;49.42;22.25;;;;;;;10.42;86.86;102243.94;5066476;28;20044;-65
2021/10/14 08:55:38;;;;;;;48.17;21.45;;;;;;;10.45;87.00;102250.84;5067622;28;20040;-65
2021/10/14 08:58:07;;;;;;;53.95;21.73;;;;;;;10.55;87.21;102251.81;5052232;28;20139;-66
2021/10/14 09:00:36;;;;;;;50.60;21.30;;;;;;;10.61;87.16;102254.00;5053601;28;20074;-66
2021/10/14 09:03:26;;;;;;;51.45;23.08;;;;;;;10.71;86.19;102248.84;5035927;28;20175;-66
2021/10/14 09:05:53;;;;;;;45.08;20.45;;;;;;;10.54;87.45;102253.63;5039043;28;20079;-66
2021/10/14 09:08:44;;;;;;;49.30;21.65;;;;;;;10.57;87.78;102257.88;5044382;28;20049;-66
2021/10/14 09:11:23;;;;;;;47.65;22.92;;;;;;;10.47;88.45;102259.53;5042103;28;20043;-66
2021/10/14 09:13:54;;;;;;;46.50;22.58;;;;;;;10.56;87.90;102257.00;5053821;28;20044;-66
2021/10/14 09:16:32;;;;;;;44.53;21.98;;;;;;;10.70;86.64;102260.44;5031704;28;20033;-65
2021/10/14 09:24:38;;;;;;;52.20;20.70;;;;;;;10.82;86.50;102243.53;5108149;27;20352;-64
2021/10/14 09:27:08;;;;;;;46.95;21.33;;;;;;;10.79;86.36;102242.91;5093882;28;20052;-64
2021/10/14 09:29:38;;;;;;;48.25;22.08;;;;;;;10.82;86.26;102248.00;5094567;28;20051;-64
2021/10/14 09:32:07;;;;;;;42.55;22.00;;;;;;;10.89;86.48;102241.25;5074660;28;20131;-64
2021/10/14 09:34:43;;;;;;;88.25;49.80;;;;;;;11.00;86.11;102237.75;5090133;28;20048;-63
2021/10/14 09:40:10;;;;;;;43.88;21.77;;;;;;;11.20;84.89;102234.38;5076168;27;20395;-64
2021/10/14 09:42:56;;;;;;;45.75;21.65;;;;;;;11.18;85.56;102243.44;5046839;28;20057;-62
2021/10/14 09:45:27;;;;;;;47.33;22.00;;;;;;;11.24;85.56;102246.47;5057739;28;20049;-64
2021/10/14 09:48:12;;;;;;;52.97;21.92;;;;;;;11.28;84.51;102241.75;5043970;28;20120;-64
2021/10/14 09:50:42;;;;;;;41.33;19.92;;;;;;;11.26;85.13;102243.66;5041731;28;20512;-63
2021/10/14 09:53:12;;;;;;;45.42;21.05;;;;;;;11.41;83.83;102237.13;5046769;28;20045;-63
2021/10/14 09:55:40;;;;;;;42.33;21.58;;;;;;;11.34;84.26;102250.06;5043716;28;20135;-64
2021/10/14 09:58:07;;;;;;;46.78;22.02;;;;;;;11.34;84.29;102236.78;5041516;28;20052;-64
2021/10/14 10:00:37;;;;;;;44.08;19.80;;;;;;;11.45;83.67;102240.41;5043142;28;20049;-64
2021/10/14 10:03:05;;;;;;;48.35;22.02;;;;;;;11.31;84.44;102237.03;5044289;28;20501;-64
2021/10/14 10:05:33;;;;;;;46.33;20.75;;;;;;;11.36;83.79;102238.47;5027461;28;20140;-64
2021/10/14 10:08:04;;;;;;;41.75;20.70;;;;;;;11.31;83.47;102239.69;5051863;28;20037;-64
2021/10/14 10:10:31;;;;;;;48.92;20.77;;;;;;;11.37;84.13;102234.84;5043488;28;20052;-64
2021/10/14 10:13:01;;;;;;;48.75;21.83;;;;;;;11.45;83.81;102235.09;5046079;28;20059;-63
2021/10/14 10:18:37;;;;;;;46.10;21.35;;;;;;;11.68;83.61;102230.56;5138084;27;20754;-63
2021/10/14 10:21:07;;;;;;;41.60;19.45;;;;;;;11.66;81.97;102235.16;5116912;28;20496;-64
2021/10/14 10:23:49;;;;;;;43.33;19.92;;;;;;;11.60;82.98;102230.34;5104804;28;20054;-64
2021/10/14 10:26:39;;;;;;;40.97;18.27;;;;;;;11.50;83.49;102233.75;5114832;28;20395;-64
2021/10/14 10:37:15;;;;;;;51.20;19.83;;;;;;;11.65;83.42;102217.53;5105435;27;20206;-64
2021/10/14 10:45:22;;;;;;;39.45;18.83;;;;;;;11.67;82.78;102218.25;5105723;27;20281;-64
2021/10/14 10:47:58;;;;;;;39.13;17.95;;;;;;;11.82;82.69;102216.13;5066778;28;20401;-64
2021/10/14 10:53:11;;;;;;;34.55;16.48;;;;;;;12.04;81.20;102209.91;5133229;27;20140;-65
2021/10/14 10:55:42;;;;;;;36.03;16.45;;;;;;;12.04;81.13;102208.13;5104263;28;20042;-65
2021/10/14 10:58:11;;;;;;;38.67;17.02;;;;;;;11.95;81.83;102205.34;5103714;28;20048;-64
2021/10/14 11:00:42;;;;;;;32.78;17.80;;;;;;;12.03;82.28;102205.56;5108028;27;20042;-66
2021/10/14 11:03:15;;;;;;;33.22;16.77;;;;;;;12.09;81.51;102192.59;5113162;28;20097;-64
2021/10/14 11:05:45;;;;;;;38.33;17.95;;;;;;;12.14;80.77;102197.53;5103620;28;20085;-64
2021/10/14 11:08:17;;;;;;;32.80;16.63;;;;;;;12.28;79.90;102197.22;5117008;28;20504;-64
2021/10/14 11:10:47;;;;;;;39.88;17.08;;;;;;;12.18;80.30;102185.66;5110588;27;20051;-66
2021/10/14 11:13:14;;;;;;;33.42;16.90;;;;;;;12.12;81.68;102188.00;5112973;28;20051;-65
2021/10/14 11:15:52;;;;;;;36.65;17.35;;;;;;;12.10;82.47;102180.16;5109127;28;20036;-66
2021/10/14 11:18:20;;;;;;;42.03;21.40;;;;;;;12.19;81.97;102187.34;5141043;27;20512;-65
2021/10/14 11:20:51;;;;;;;39.85;17.73;;;;;;;12.25;81.04;102173.53;5101347;28;20040;-66
2021/10/14 11:23:20;;;;;;;36.47;16.67;;;;;;;12.38;81.03;102176.00;5107935;28;20115;-65
2021/10/14 11:26:05;;;;;;;36.92;16.90;;;;;;;12.54;80.17;102174.69;5112991;28;20060;-66
2021/10/14 11:28:54;;;;;;;34.92;18.15;;;;;;;12.39;81.06;102171.53;5121074;27;20109;-66
2021/10/14 11:31:25;;;;;;;31.48;15.85;;;;;;;12.34;81.24;102171.91;5114803;28;20438;-66
2021/10/14 11:33:52;;;;;;;30.48;15.93;;;;;;;12.33;80.30;102167.53;5104298;27;20050;-66
2021/10/14 11:36:21;;;;;;;35.25;14.95;;;;;;;12.44;80.98;102162.19;5098607;28;20446;-66
2021/10/14 11:39:09;;;;;;;36.28;15.63;;;;;;;12.45;81.29;102161.19;5106276;28;20059;-66
2021/10/14 11:41:38;;;;;;;31.02;14.77;;;;;;;12.64;80.79;102167.56;5106838;28;20051;-66
2021/10/14 11:44:08;;;;;;;35.45;13.98;;;;;;;12.75;79.12;102164.84;5103418;28;20086;-66